sensor_id;sensor_type;location;lat;lon;timestamp;temperature;humidity
33095;DHT22;19459;53.044;8.910;2022-09-09T00:04:41;14.70;99.90
33095;DHT22;19459;53.044;8.910;2022-09-09T00:10:13;14.60;99.90
33095;DHT22;19459;53.044;8.910;2022-09-09T00:13:01;14.60;99.90
33095;DHT22;19459;53.044;8.910;2022-09-09T00:15:38;14.60;99.90
33095;DHT22;19459;53.044;8.910;2022-09-09T00:18:18;14.60;99.90
33095;DHT22;19459;53.044;8.910;2022-09-09T00:21:13;14.60;99.90
33095;DHT22;19459;53.044;8.910;2022-09-09T00:23:47;14.60;99.90
33095;DHT22;19459;53.044;8.910;2022-09-09T00:31:34;14.50;99.90
33095;DHT22;19459;53.044;8.910;2022-09-09T00:34:14;14.50;99.90
33095;DHT22;19459;53.044;8.910;2022-09-09T00:36:45;14.50;99.90
33095;DHT22;19459;53.044;8.910;2022-09-09T00:39:37;14.40;99.90
33095;DHT22;19459;53.044;8.910;2022-09-09T00:42:23;14.40;99.90
33095;DHT22;19459;53.044;8.910;2022-09-09T00:45:07;14.40;99.90
33095;DHT22;19459;53.044;8.910;2022-09-09T00:47:49;14.40;99.90
33095;DHT22;19459;53.044;8.910;2022-09-09T00:50:55;14.40;99.90
33095;DHT22;19459;53.044;8.910;2022-09-09T00:53:51;14.40;99.90
33095;DHT22;19459;53.044;8.910;2022-09-09T00:56:51;14.40;99.90
33095;DHT22;19459;53.044;8.910;2022-09-09T00:59:28;14.30;99.90
33095;DHT22;19459;53.044;8.910;2022-09-09T01:05:03;14.30;99.90
33095;DHT22;19459;53.044;8.910;2022-09-09T01:07:32;14.30;99.90
33095;DHT22;19459;53.044;8.910;2022-09-09T01:10:00;14.30;99.90
33095;DHT22;19459;53.044;8.910;2022-09-09T01:12:42;14.30;99.90
33095;DHT22;19459;53.044;8.910;2022-09-09T01:15:12;14.20;99.90
33095;DHT22;19459;53.044;8.910;2022-09-09T01:18:05;14.20;99.90
33095;DHT22;19459;53.044;8.910;2022-09-09T01:20:58;14.20;99.90
33095;DHT22;19459;53.044;8.910;2022-09-09T01:26:26;14.20;99.90
33095;DHT22;19459;53.044;8.910;2022-09-09T01:28:55;14.20;99.90
33095;DHT22;19459;53.044;8.910;2022-09-09T01:31:37;14.20;99.90
33095;DHT22;19459;53.044;8.910;2022-09-09T01:34:13;14.20;99.90
33095;DHT22;19459;53.044;8.910;2022-09-09T01:36:49;14.20;99.90
33095;DHT22;19459;53.044;8.910;2022-09-09T01:39:18;14.10;99.90
33095;DHT22;19459;53.044;8.910;2022-09-09T01:41:44;14.10;99.90
33095;DHT22;19459;53.044;8.910;2022-09-09T01:44:11;14.10;99.90
33095;DHT22;19459;53.044;8.910;2022-09-09T01:46:36;14.10;99.90
33095;DHT22;19459;53.044;8.910;2022-09-09T01:49:05;14.10;99.90
33095;DHT22;19459;53.044;8.910;2022-09-09T01:51:33;14.10;99.90
33095;DHT22;19459;53.044;8.910;2022-09-09T01:53:59;14.00;99.90
33095;DHT22;19459;53.044;8.910;2022-09-09T02:02:24;14.00;99.90
33095;DHT22;19459;53.044;8.910;2022-09-09T02:04:56;14.00;99.90
33095;DHT22;19459;53.044;8.910;2022-09-09T02:07:40;14.00;99.90
33095;DHT22;19459;53.044;8.910;2022-09-09T02:10:20;13.90;99.90
33095;DHT22;19459;53.044;8.910;2022-09-09T02:12:53;14.00;99.90
33095;DHT22;19459;53.044;8.910;2022-09-09T02:15:24;14.00;99.90
33095;DHT22;19459;53.044;8.910;2022-09-09T02:17:55;13.90;99.90
33095;DHT22;19459;53.044;8.910;2022-09-09T02:20:24;13.90;99.90
33095;DHT22;19459;53.044;8.910;2022-09-09T02:22:54;13.80;99.90
33095;DHT22;19459;53.044;8.910;2022-09-09T02:25:24;13.80;99.90
33095;DHT22;19459;53.044;8.910;2022-09-09T02:27:51;13.80;99.90
33095;DHT22;19459;53.044;8.910;2022-09-09T02:30:18;13.80;99.90
33095;DHT22;19459;53.044;8.910;2022-09-09T02:32:46;13.70;99.90
33095;DHT22;19459;53.044;8.910;2022-09-09T02:35:15;13.70;99.90
33095;DHT22;19459;53.044;8.910;2022-09-09T02:37:45;13.70;99.90
33095;DHT22;19459;53.044;8.910;2022-09-09T02:40:14;13.80;99.90
33095;DHT22;19459;53.044;8.910;2022-09-09T02:42:45;13.80;99.90
33095;DHT22;19459;53.044;8.910;2022-09-09T02:45:16;13.70;99.90
33095;DHT22;19459;53.044;8.910;2022-09-09T02:47:55;13.70;99.90
33095;DHT22;19459;53.044;8.910;2022-09-09T02:50:48;13.70;99.90
33095;DHT22;19459;53.044;8.910;2022-09-09T02:53:38;13.70;99.90
33095;DHT22;19459;53.044;8.910;2022-09-09T02:56:14;13.60;99.90
33095;DHT22;19459;53.044;8.910;2022-09-09T02:58:42;13.60;99.90
33095;DHT22;19459;53.044;8.910;2022-09-09T03:01:08;13.50;99.90
33095;DHT22;19459;53.044;8.910;2022-09-09T03:03:34;13.60;99.90
33095;DHT22;19459;53.044;8.910;2022-09-09T03:06:00;13.50;99.90
33095;DHT22;19459;53.044;8.910;2022-09-09T03:08:26;13.50;99.90
33095;DHT22;19459;53.044;8.910;2022-09-09T03:10:54;13.60;99.90
33095;DHT22;19459;53.044;8.910;2022-09-09T03:13:20;13.60;99.90
33095;DHT22;19459;53.044;8.910;2022-09-09T03:15:47;13.60;99.90
33095;DHT22;19459;53.044;8.910;2022-09-09T03:18:14;13.60;99.90
33095;DHT22;19459;53.044;8.910;2022-09-09T03:20:39;13.50;99.90
33095;DHT22;19459;53.044;8.910;2022-09-09T03:23:07;13.50;99.90
33095;DHT22;19459;53.044;8.910;2022-09-09T03:25:33;13.50;99.90
33095;DHT22;19459;53.044;8.910;2022-09-09T03:27:59;13.50;99.90
33095;DHT22;19459;53.044;8.910;2022-09-09T03:30:26;13.50;99.90
33095;DHT22;19459;53.044;8.910;2022-09-09T03:32:53;13.50;99.90
33095;DHT22;19459;53.044;8.910;2022-09-09T03:35:20;13.50;99.90
33095;DHT22;19459;53.044;8.910;2022-09-09T03:37:46;13.60;99.90
33095;DHT22;19459;53.044;8.910;2022-09-09T03:40:12;13.50;99.90
33095;DHT22;19459;53.044;8.910;2022-09-09T03:42:39;13.60;99.90
33095;DHT22;19459;53.044;8.910;2022-09-09T03:45:07;13.60;99.90
33095;DHT22;19459;53.044;8.910;2022-09-09T03:47:34;13.60;99.90
33095;DHT22;19459;53.044;8.910;2022-09-09T03:50:00;13.70;99.90
33095;DHT22;19459;53.044;8.910;2022-09-09T03:52:26;13.70;99.90
33095;DHT22;19459;53.044;8.910;2022-09-09T03:54:53;13.70;99.90
33095;DHT22;19459;53.044;8.910;2022-09-09T03:57:20;13.80;99.90
33095;DHT22;19459;53.044;8.910;2022-09-09T03:59:45;13.80;99.90
33095;DHT22;19459;53.044;8.910;2022-09-09T04:02:11;13.90;99.90
33095;DHT22;19459;53.044;8.910;2022-09-09T04:04:37;13.90;99.90
33095;DHT22;19459;53.044;8.910;2022-09-09T04:07:03;14.00;99.90
33095;DHT22;19459;53.044;8.910;2022-09-09T04:09:31;14.00;99.90
33095;DHT22;19459;53.044;8.910;2022-09-09T04:11:57;14.00;99.90
33095;DHT22;19459;53.044;8.910;2022-09-09T04:14:22;14.00;99.90
33095;DHT22;19459;53.044;8.910;2022-09-09T04:16:48;14.00;99.90
33095;DHT22;19459;53.044;8.910;2022-09-09T04:19:14;14.00;99.90
33095;DHT22;19459;53.044;8.910;2022-09-09T04:21:40;14.10;99.90
33095;DHT22;19459;53.044;8.910;2022-09-09T04:24:07;14.10;99.90
33095;DHT22;19459;53.044;8.910;2022-09-09T04:26:34;14.10;99.90
33095;DHT22;19459;53.044;8.910;2022-09-09T04:29:02;14.10;99.90
33095;DHT22;19459;53.044;8.910;2022-09-09T04:31:29;14.10;99.90
33095;DHT22;19459;53.044;8.910;2022-09-09T04:33:55;14.20;99.90
33095;DHT22;19459;53.044;8.910;2022-09-09T04:36:22;14.20;99.90
33095;DHT22;19459;53.044;8.910;2022-09-09T04:38:48;14.20;99.90
33095;DHT22;19459;53.044;8.910;2022-09-09T04:41:14;14.20;99.90
33095;DHT22;19459;53.044;8.910;2022-09-09T04:43:41;14.20;99.90
33095;DHT22;19459;53.044;8.910;2022-09-09T04:46:07;14.30;99.90
33095;DHT22;19459;53.044;8.910;2022-09-09T04:48:33;14.20;99.90
33095;DHT22;19459;53.044;8.910;2022-09-09T04:51:02;14.30;99.90
33095;DHT22;19459;53.044;8.910;2022-09-09T04:53:30;14.30;99.90
33095;DHT22;19459;53.044;8.910;2022-09-09T04:58:37;14.30;99.90
33095;DHT22;19459;53.044;8.910;2022-09-09T05:01:18;14.40;99.90
33095;DHT22;19459;53.044;8.910;2022-09-09T05:03:45;14.40;99.90
33095;DHT22;19459;53.044;8.910;2022-09-09T05:06:14;14.40;99.90
33095;DHT22;19459;53.044;8.910;2022-09-09T05:08:42;14.40;99.90
33095;DHT22;19459;53.044;8.910;2022-09-09T05:11:18;14.40;99.90
33095;DHT22;19459;53.044;8.910;2022-09-09T05:13:46;14.40;99.90
33095;DHT22;19459;53.044;8.910;2022-09-09T05:16:13;14.40;99.90
33095;DHT22;19459;53.044;8.910;2022-09-09T05:18:40;14.40;99.90
33095;DHT22;19459;53.044;8.910;2022-09-09T05:21:08;14.30;99.90
33095;DHT22;19459;53.044;8.910;2022-09-09T05:23:35;14.40;99.90
33095;DHT22;19459;53.044;8.910;2022-09-09T05:26:01;14.30;99.90
33095;DHT22;19459;53.044;8.910;2022-09-09T05:28:28;14.30;99.90
33095;DHT22;19459;53.044;8.910;2022-09-09T05:31:09;14.30;99.90
33095;DHT22;19459;53.044;8.910;2022-09-09T05:33:39;14.30;99.90
33095;DHT22;19459;53.044;8.910;2022-09-09T05:36:10;14.30;99.90
33095;DHT22;19459;53.044;8.910;2022-09-09T05:38:41;14.30;99.90
33095;DHT22;19459;53.044;8.910;2022-09-09T05:41:07;14.30;99.90
33095;DHT22;19459;53.044;8.910;2022-09-09T05:43:33;14.20;99.90
33095;DHT22;19459;53.044;8.910;2022-09-09T05:46:08;14.20;99.90
33095;DHT22;19459;53.044;8.910;2022-09-09T05:48:39;14.20;99.90
33095;DHT22;19459;53.044;8.910;2022-09-09T05:51:10;14.20;99.90
33095;DHT22;19459;53.044;8.910;2022-09-09T05:53:38;14.30;99.90
33095;DHT22;19459;53.044;8.910;2022-09-09T05:56:10;14.20;99.90
33095;DHT22;19459;53.044;8.910;2022-09-09T05:58:38;14.30;99.90
33095;DHT22;19459;53.044;8.910;2022-09-09T06:01:06;14.20;99.90
33095;DHT22;19459;53.044;8.910;2022-09-09T06:03:38;14.20;99.90
33095;DHT22;19459;53.044;8.910;2022-09-09T06:06:07;14.20;99.90
33095;DHT22;19459;53.044;8.910;2022-09-09T06:08:35;14.20;99.90
33095;DHT22;19459;53.044;8.910;2022-09-09T06:11:04;14.20;99.90
33095;DHT22;19459;53.044;8.910;2022-09-09T06:13:34;14.20;99.90
33095;DHT22;19459;53.044;8.910;2022-09-09T06:16:00;14.20;99.90
33095;DHT22;19459;53.044;8.910;2022-09-09T06:18:26;14.20;99.90
33095;DHT22;19459;53.044;8.910;2022-09-09T06:21:00;14.30;99.90
33095;DHT22;19459;53.044;8.910;2022-09-09T06:23:30;14.40;99.90
33095;DHT22;19459;53.044;8.910;2022-09-09T06:28:49;14.60;99.90
33095;DHT22;19459;53.044;8.910;2022-09-09T06:31:17;14.70;99.90
33095;DHT22;19459;53.044;8.910;2022-09-09T06:33:48;14.80;99.90
33095;DHT22;19459;53.044;8.910;2022-09-09T06:36:23;14.90;99.90
33095;DHT22;19459;53.044;8.910;2022-09-09T06:38:56;15.10;99.90
33095;DHT22;19459;53.044;8.910;2022-09-09T06:41:24;15.30;99.90
33095;DHT22;19459;53.044;8.910;2022-09-09T06:43:52;15.40;99.90
33095;DHT22;19459;53.044;8.910;2022-09-09T06:46:20;15.60;99.90
33095;DHT22;19459;53.044;8.910;2022-09-09T06:48:53;15.60;99.90
33095;DHT22;19459;53.044;8.910;2022-09-09T06:51:26;15.60;99.90
33095;DHT22;19459;53.044;8.910;2022-09-09T06:53:55;15.70;99.90
33095;DHT22;19459;53.044;8.910;2022-09-09T06:56:34;15.70;99.90
33095;DHT22;19459;53.044;8.910;2022-09-09T06:59:03;15.70;99.90
33095;DHT22;19459;53.044;8.910;2022-09-09T07:01:33;15.80;99.90
33095;DHT22;19459;53.044;8.910;2022-09-09T07:04:03;16.00;99.90
33095;DHT22;19459;53.044;8.910;2022-09-09T07:06:34;16.10;99.90
33095;DHT22;19459;53.044;8.910;2022-09-09T07:09:03;16.20;99.90
33095;DHT22;19459;53.044;8.910;2022-09-09T07:11:40;16.30;99.90
33095;DHT22;19459;53.044;8.910;2022-09-09T07:14:08;16.30;99.90
33095;DHT22;19459;53.044;8.910;2022-09-09T07:16:34;16.40;99.90
33095;DHT22;19459;53.044;8.910;2022-09-09T07:19:03;16.40;99.90
33095;DHT22;19459;53.044;8.910;2022-09-09T07:21:30;16.40;99.90
33095;DHT22;19459;53.044;8.910;2022-09-09T07:23:57;16.50;99.90
33095;DHT22;19459;53.044;8.910;2022-09-09T07:26:25;16.60;99.90
33095;DHT22;19459;53.044;8.910;2022-09-09T07:28:52;16.60;99.90
33095;DHT22;19459;53.044;8.910;2022-09-09T07:31:21;16.70;99.90
33095;DHT22;19459;53.044;8.910;2022-09-09T07:33:49;16.80;99.90
33095;DHT22;19459;53.044;8.910;2022-09-09T07:36:29;16.90;99.90
33095;DHT22;19459;53.044;8.910;2022-09-09T07:39:07;17.00;99.90
33095;DHT22;19459;53.044;8.910;2022-09-09T07:41:39;17.10;99.90
33095;DHT22;19459;53.044;8.910;2022-09-09T07:44:11;17.20;99.90
33095;DHT22;19459;53.044;8.910;2022-09-09T07:46:42;17.20;99.90
33095;DHT22;19459;53.044;8.910;2022-09-09T07:49:09;17.30;99.90
33095;DHT22;19459;53.044;8.910;2022-09-09T07:51:38;17.30;99.90
33095;DHT22;19459;53.044;8.910;2022-09-09T07:54:08;17.40;99.90
33095;DHT22;19459;53.044;8.910;2022-09-09T07:56:37;17.50;99.90
33095;DHT22;19459;53.044;8.910;2022-09-09T07:59:03;17.70;99.90
33095;DHT22;19459;53.044;8.910;2022-09-09T08:01:34;17.80;99.90
33095;DHT22;19459;53.044;8.910;2022-09-09T08:04:06;17.90;99.90
33095;DHT22;19459;53.044;8.910;2022-09-09T08:06:39;17.90;99.90
33095;DHT22;19459;53.044;8.910;2022-09-09T08:09:07;18.00;99.90
33095;DHT22;19459;53.044;8.910;2022-09-09T08:11:38;18.00;99.90
33095;DHT22;19459;53.044;8.910;2022-09-09T08:14:28;18.00;99.90
33095;DHT22;19459;53.044;8.910;2022-09-09T08:17:10;18.30;99.90
33095;DHT22;19459;53.044;8.910;2022-09-09T08:19:36;18.40;99.90
33095;DHT22;19459;53.044;8.910;2022-09-09T08:22:02;18.40;99.90
33095;DHT22;19459;53.044;8.910;2022-09-09T08:24:28;18.40;99.90
33095;DHT22;19459;53.044;8.910;2022-09-09T08:26:54;18.30;99.90
33095;DHT22;19459;53.044;8.910;2022-09-09T08:29:22;18.30;99.90
33095;DHT22;19459;53.044;8.910;2022-09-09T08:31:49;18.40;99.90
33095;DHT22;19459;53.044;8.910;2022-09-09T08:34:20;18.30;99.90
33095;DHT22;19459;53.044;8.910;2022-09-09T08:36:48;18.60;99.90
33095;DHT22;19459;53.044;8.910;2022-09-09T08:39:16;18.70;99.90
33095;DHT22;19459;53.044;8.910;2022-09-09T08:50:29;19.00;99.90
33095;DHT22;19459;53.044;8.910;2022-09-09T08:53:24;19.40;99.90
33095;DHT22;19459;53.044;8.910;2022-09-09T08:56:01;19.70;99.90
33095;DHT22;19459;53.044;8.910;2022-09-09T08:58:32;19.60;99.90
33095;DHT22;19459;53.044;8.910;2022-09-09T09:12:52;19.90;99.90
33095;DHT22;19459;53.044;8.910;2022-09-09T09:15:22;19.80;99.90
33095;DHT22;19459;53.044;8.910;2022-09-09T09:17:49;19.80;99.90
33095;DHT22;19459;53.044;8.910;2022-09-09T09:23:25;19.30;99.90
33095;DHT22;19459;53.044;8.910;2022-09-09T09:26:01;19.40;99.90
33095;DHT22;19459;53.044;8.910;2022-09-09T09:28:30;19.40;99.90
33095;DHT22;19459;53.044;8.910;2022-09-09T09:31:06;19.60;99.90
33095;DHT22;19459;53.044;8.910;2022-09-09T09:36:12;19.80;99.90
33095;DHT22;19459;53.044;8.910;2022-09-09T09:39:00;19.70;99.90
33095;DHT22;19459;53.044;8.910;2022-09-09T09:41:39;19.90;99.90
33095;DHT22;19459;53.044;8.910;2022-09-09T09:47:12;20.50;99.90
33095;DHT22;19459;53.044;8.910;2022-09-09T09:49:52;20.80;99.90
33095;DHT22;19459;53.044;8.910;2022-09-09T09:52:26;20.80;99.90
33095;DHT22;19459;53.044;8.910;2022-09-09T09:54:54;20.90;99.90
33095;DHT22;19459;53.044;8.910;2022-09-09T09:57:31;20.40;99.90
33095;DHT22;19459;53.044;8.910;2022-09-09T10:00:13;20.20;99.90
33095;DHT22;19459;53.044;8.910;2022-09-09T10:02:42;20.00;99.90
33095;DHT22;19459;53.044;8.910;2022-09-09T10:05:18;20.00;99.90
33095;DHT22;19459;53.044;8.910;2022-09-09T10:07:46;19.90;99.90
33095;DHT22;19459;53.044;8.910;2022-09-09T10:10:26;19.80;99.90
33095;DHT22;19459;53.044;8.910;2022-09-09T10:13:14;19.80;99.90
33095;DHT22;19459;53.044;8.910;2022-09-09T10:15:50;20.10;99.90
33095;DHT22;19459;53.044;8.910;2022-09-09T10:18:57;20.10;99.90
33095;DHT22;19459;53.044;8.910;2022-09-09T10:25:00;20.20;99.90
33095;DHT22;19459;53.044;8.910;2022-09-09T10:30:23;20.50;99.90
33095;DHT22;19459;53.044;8.910;2022-09-09T10:33:09;20.70;99.90
33095;DHT22;19459;53.044;8.910;2022-09-09T10:41:44;21.30;99.90
33095;DHT22;19459;53.044;8.910;2022-09-09T10:44:18;21.40;99.90
33095;DHT22;19459;53.044;8.910;2022-09-09T10:55:53;22.00;99.90
33095;DHT22;19459;53.044;8.910;2022-09-09T10:58:30;21.80;99.90
33095;DHT22;19459;53.044;8.910;2022-09-09T11:01:06;21.80;99.90
33095;DHT22;19459;53.044;8.910;2022-09-09T11:03:39;21.80;99.90
33095;DHT22;19459;53.044;8.910;2022-09-09T11:06:10;22.00;99.90
33095;DHT22;19459;53.044;8.910;2022-09-09T11:08:42;22.00;99.90
33095;DHT22;19459;53.044;8.910;2022-09-09T11:11:31;22.00;99.90
33095;DHT22;19459;53.044;8.910;2022-09-09T11:14:30;22.20;99.90
33095;DHT22;19459;53.044;8.910;2022-09-09T11:17:05;22.10;99.90
33095;DHT22;19459;53.044;8.910;2022-09-09T11:19:42;22.00;99.90
33095;DHT22;19459;53.044;8.910;2022-09-09T11:25:16;21.80;99.90
33095;DHT22;19459;53.044;8.910;2022-09-09T11:30:50;21.40;99.90
33095;DHT22;19459;53.044;8.910;2022-09-09T11:42:20;22.30;99.90
33095;DHT22;19459;53.044;8.910;2022-09-09T11:44:47;21.80;99.90
33095;DHT22;19459;53.044;8.910;2022-09-09T11:47:21;21.60;99.90
33095;DHT22;19459;53.044;8.910;2022-09-09T11:49:54;21.60;99.90
33095;DHT22;19459;53.044;8.910;2022-09-09T11:55:11;21.60;99.90
33095;DHT22;19459;53.044;8.910;2022-09-09T12:03:35;20.10;99.90
33095;DHT22;19459;53.044;8.910;2022-09-09T12:09:12;19.70;99.90
33095;DHT22;19459;53.044;8.910;2022-09-09T12:12:29;19.60;99.90
33095;DHT22;19459;53.044;8.910;2022-09-09T12:17:45;19.50;99.90
33095;DHT22;19459;53.044;8.910;2022-09-09T12:28:41;19.40;99.90
33095;DHT22;19459;53.044;8.910;2022-09-09T12:31:49;19.30;99.90
33095;DHT22;19459;53.044;8.910;2022-09-09T12:37:28;19.40;99.90
33095;DHT22;19459;53.044;8.910;2022-09-09T12:40:02;19.40;99.90
33095;DHT22;19459;53.044;8.910;2022-09-09T12:42:41;19.50;99.90
33095;DHT22;19459;53.044;8.910;2022-09-09T12:45:17;19.60;99.90
33095;DHT22;19459;53.044;8.910;2022-09-09T12:48:00;19.60;99.90
33095;DHT22;19459;53.044;8.910;2022-09-09T12:50:38;19.40;99.90
33095;DHT22;19459;53.044;8.910;2022-09-09T12:56:29;19.30;99.90
33095;DHT22;19459;53.044;8.910;2022-09-09T13:03:14;19.10;99.90
33095;DHT22;19459;53.044;8.910;2022-09-09T13:05:41;18.90;99.90
33095;DHT22;19459;53.044;8.910;2022-09-09T13:08:12;18.90;99.90
33095;DHT22;19459;53.044;8.910;2022-09-09T13:13:19;18.90;99.90
33095;DHT22;19459;53.044;8.910;2022-09-09T13:15:56;19.00;99.90
33095;DHT22;19459;53.044;8.910;2022-09-09T13:18:26;19.20;99.90
33095;DHT22;19459;53.044;8.910;2022-09-09T13:20:55;19.30;99.90
33095;DHT22;19459;53.044;8.910;2022-09-09T13:23:27;19.40;99.90
33095;DHT22;19459;53.044;8.910;2022-09-09T13:26:03;19.60;99.90
33095;DHT22;19459;53.044;8.910;2022-09-09T13:28:32;19.80;99.90
33095;DHT22;19459;53.044;8.910;2022-09-09T13:31:18;19.90;99.90
33095;DHT22;19459;53.044;8.910;2022-09-09T13:33:46;20.00;99.90
33095;DHT22;19459;53.044;8.910;2022-09-09T13:36:12;20.20;99.90
33095;DHT22;19459;53.044;8.910;2022-09-09T13:41:29;20.50;99.90
33095;DHT22;19459;53.044;8.910;2022-09-09T13:43:56;20.40;99.90
33095;DHT22;19459;53.044;8.910;2022-09-09T13:46:40;20.20;99.90
33095;DHT22;19459;53.044;8.910;2022-09-09T13:51:44;19.90;99.90
33095;DHT22;19459;53.044;8.910;2022-09-09T13:54:17;19.80;99.90
33095;DHT22;19459;53.044;8.910;2022-09-09T13:56:45;19.80;99.90
33095;DHT22;19459;53.044;8.910;2022-09-09T13:59:17;19.70;99.90
33095;DHT22;19459;53.044;8.910;2022-09-09T14:01:46;19.60;99.90
33095;DHT22;19459;53.044;8.910;2022-09-09T14:04:14;19.30;99.90
33095;DHT22;19459;53.044;8.910;2022-09-09T14:06:41;19.20;99.90
33095;DHT22;19459;53.044;8.910;2022-09-09T14:09:12;19.00;99.90
33095;DHT22;19459;53.044;8.910;2022-09-09T14:11:40;19.00;99.90
33095;DHT22;19459;53.044;8.910;2022-09-09T14:14:07;18.90;99.90
33095;DHT22;19459;53.044;8.910;2022-09-09T14:16:33;18.90;99.90
33095;DHT22;19459;53.044;8.910;2022-09-09T14:18:58;18.90;99.90
33095;DHT22;19459;53.044;8.910;2022-09-09T14:21:25;18.80;99.90
33095;DHT22;19459;53.044;8.910;2022-09-09T14:23:52;18.80;99.90
33095;DHT22;19459;53.044;8.910;2022-09-09T14:26:18;18.80;99.90
33095;DHT22;19459;53.044;8.910;2022-09-09T14:28:47;18.80;99.90
33095;DHT22;19459;53.044;8.910;2022-09-09T14:31:13;18.80;99.90
33095;DHT22;19459;53.044;8.910;2022-09-09T14:33:40;18.90;99.90
33095;DHT22;19459;53.044;8.910;2022-09-09T14:36:06;18.90;99.90
33095;DHT22;19459;53.044;8.910;2022-09-09T14:38:37;18.80;99.90
33095;DHT22;19459;53.044;8.910;2022-09-09T14:41:10;18.80;99.90
33095;DHT22;19459;53.044;8.910;2022-09-09T14:43:40;18.80;99.90
33095;DHT22;19459;53.044;8.910;2022-09-09T14:48:37;18.80;99.90
33095;DHT22;19459;53.044;8.910;2022-09-09T14:51:13;18.70;99.90
33095;DHT22;19459;53.044;8.910;2022-09-09T14:53:41;18.60;99.90
33095;DHT22;19459;53.044;8.910;2022-09-09T14:56:12;18.40;99.90
33095;DHT22;19459;53.044;8.910;2022-09-09T14:58:41;18.20;99.90
33095;DHT22;19459;53.044;8.910;2022-09-09T15:01:10;18.20;99.90
33095;DHT22;19459;53.044;8.910;2022-09-09T15:03:39;18.10;99.90
33095;DHT22;19459;53.044;8.910;2022-09-09T15:06:10;18.10;99.90
33095;DHT22;19459;53.044;8.910;2022-09-09T15:08:38;18.10;99.90
33095;DHT22;19459;53.044;8.910;2022-09-09T15:11:05;18.10;99.90
33095;DHT22;19459;53.044;8.910;2022-09-09T15:13:34;18.10;99.90
33095;DHT22;19459;53.044;8.910;2022-09-09T15:16:07;18.10;99.90
33095;DHT22;19459;53.044;8.910;2022-09-09T15:18:34;18.10;99.90
33095;DHT22;19459;53.044;8.910;2022-09-09T15:21:02;18.00;99.90
33095;DHT22;19459;53.044;8.910;2022-09-09T15:23:35;17.90;99.90
33095;DHT22;19459;53.044;8.910;2022-09-09T15:26:02;17.90;99.90
33095;DHT22;19459;53.044;8.910;2022-09-09T15:28:28;17.80;99.90
33095;DHT22;19459;53.044;8.910;2022-09-09T15:30:54;17.80;99.90
33095;DHT22;19459;53.044;8.910;2022-09-09T15:33:21;17.70;99.90
33095;DHT22;19459;53.044;8.910;2022-09-09T15:35:47;17.60;99.90
33095;DHT22;19459;53.044;8.910;2022-09-09T15:38:13;17.50;99.90
33095;DHT22;19459;53.044;8.910;2022-09-09T15:40:40;17.50;99.90
33095;DHT22;19459;53.044;8.910;2022-09-09T15:43:06;17.40;99.90
33095;DHT22;19459;53.044;8.910;2022-09-09T15:45:33;17.40;99.90
33095;DHT22;19459;53.044;8.910;2022-09-09T15:48:03;17.40;99.90
33095;DHT22;19459;53.044;8.910;2022-09-09T15:50:29;17.40;99.90
33095;DHT22;19459;53.044;8.910;2022-09-09T15:53:01;17.40;99.90
33095;DHT22;19459;53.044;8.910;2022-09-09T15:55:27;17.30;99.90
33095;DHT22;19459;53.044;8.910;2022-09-09T15:57:54;17.30;99.90
33095;DHT22;19459;53.044;8.910;2022-09-09T16:00:20;17.30;99.90
33095;DHT22;19459;53.044;8.910;2022-09-09T16:02:47;17.30;99.90
33095;DHT22;19459;53.044;8.910;2022-09-09T16:05:13;17.30;99.90
33095;DHT22;19459;53.044;8.910;2022-09-09T16:07:38;17.30;99.90
33095;DHT22;19459;53.044;8.910;2022-09-09T16:10:05;17.30;99.90
33095;DHT22;19459;53.044;8.910;2022-09-09T16:12:31;17.20;99.90
33095;DHT22;19459;53.044;8.910;2022-09-09T16:14:57;17.20;99.90
33095;DHT22;19459;53.044;8.910;2022-09-09T16:17:22;17.20;99.90
33095;DHT22;19459;53.044;8.910;2022-09-09T16:19:48;17.20;99.90
33095;DHT22;19459;53.044;8.910;2022-09-09T16:22:14;17.30;99.90
33095;DHT22;19459;53.044;8.910;2022-09-09T16:24:41;17.10;99.90
33095;DHT22;19459;53.044;8.910;2022-09-09T16:27:07;17.10;99.90
33095;DHT22;19459;53.044;8.910;2022-09-09T16:29:33;17.10;99.90
33095;DHT22;19459;53.044;8.910;2022-09-09T16:31:58;17.00;99.90
33095;DHT22;19459;53.044;8.910;2022-09-09T16:34:25;17.00;99.90
33095;DHT22;19459;53.044;8.910;2022-09-09T16:36:51;17.00;99.90
33095;DHT22;19459;53.044;8.910;2022-09-09T16:39:19;17.00;99.90
33095;DHT22;19459;53.044;8.910;2022-09-09T16:41:46;16.90;99.90
33095;DHT22;19459;53.044;8.910;2022-09-09T16:44:15;16.90;99.90
33095;DHT22;19459;53.044;8.910;2022-09-09T16:46:45;16.80;99.90
33095;DHT22;19459;53.044;8.910;2022-09-09T16:49:14;16.70;99.90
33095;DHT22;19459;53.044;8.910;2022-09-09T16:51:46;16.70;99.90
33095;DHT22;19459;53.044;8.910;2022-09-09T16:54:13;16.60;99.90
33095;DHT22;19459;53.044;8.910;2022-09-09T16:56:43;16.70;99.90
33095;DHT22;19459;53.044;8.910;2022-09-09T16:59:28;16.70;99.90
33095;DHT22;19459;53.044;8.910;2022-09-09T17:01:53;16.80;99.90
33095;DHT22;19459;53.044;8.910;2022-09-09T17:04:22;16.80;99.90
33095;DHT22;19459;53.044;8.910;2022-09-09T17:06:53;16.80;99.90
33095;DHT22;19459;53.044;8.910;2022-09-09T17:09:20;16.80;99.90
33095;DHT22;19459;53.044;8.910;2022-09-09T17:11:48;16.90;99.90
33095;DHT22;19459;53.044;8.910;2022-09-09T17:14:19;16.80;99.90
33095;DHT22;19459;53.044;8.910;2022-09-09T17:16:46;16.60;99.90
33095;DHT22;19459;53.044;8.910;2022-09-09T17:19:12;16.40;99.90
33095;DHT22;19459;53.044;8.910;2022-09-09T17:21:39;16.10;99.90
33095;DHT22;19459;53.044;8.910;2022-09-09T17:24:05;16.00;99.90
33095;DHT22;19459;53.044;8.910;2022-09-09T17:26:33;16.00;99.90
33095;DHT22;19459;53.044;8.910;2022-09-09T17:28:59;16.10;99.90
33095;DHT22;19459;53.044;8.910;2022-09-09T17:31:27;16.10;99.90
33095;DHT22;19459;53.044;8.910;2022-09-09T17:33:54;16.10;99.90
33095;DHT22;19459;53.044;8.910;2022-09-09T17:36:24;16.10;99.90
33095;DHT22;19459;53.044;8.910;2022-09-09T17:38:51;16.20;99.90
33095;DHT22;19459;53.044;8.910;2022-09-09T17:41:21;16.20;99.90
33095;DHT22;19459;53.044;8.910;2022-09-09T17:43:49;16.30;99.90
33095;DHT22;19459;53.044;8.910;2022-09-09T17:46:22;16.30;99.90
33095;DHT22;19459;53.044;8.910;2022-09-09T17:48:54;16.30;99.90
33095;DHT22;19459;53.044;8.910;2022-09-09T17:51:23;16.30;99.90
33095;DHT22;19459;53.044;8.910;2022-09-09T17:53:54;16.30;99.90
33095;DHT22;19459;53.044;8.910;2022-09-09T17:56:22;16.30;99.90
33095;DHT22;19459;53.044;8.910;2022-09-09T17:58:49;16.30;99.90
33095;DHT22;19459;53.044;8.910;2022-09-09T18:01:21;16.30;99.90
33095;DHT22;19459;53.044;8.910;2022-09-09T18:03:50;16.40;99.90
33095;DHT22;19459;53.044;8.910;2022-09-09T18:06:21;16.30;99.90
33095;DHT22;19459;53.044;8.910;2022-09-09T18:08:50;16.30;99.90
33095;DHT22;19459;53.044;8.910;2022-09-09T18:11:19;16.30;99.90
33095;DHT22;19459;53.044;8.910;2022-09-09T18:13:57;16.30;99.90